Time;durP1;ratioP1;P1;durP2;ratioP2;P2;SDS_P1;SDS_P2;PMS_P1;PMS_P2;Temp;Humidity;BMP_temperature;BMP_pressure;BME280_temperature;BME280_humidity;BME280_pressure;Samples;Min_cycle;Max_cycle;Signal;HPM_P1;HPM_P2
2022/09/28 00:02:00;;;;;;;5.00;3.47;;;;;;;8.96;100.00;99673.22;4980573;28;20255;-74
2022/09/28 00:04:25;;;;;;;4.93;3.40;;;;;;;8.95;100.00;99672.41;4996211;28;20212;-73
2022/09/28 00:06:51;;;;;;;4.73;4.00;;;;;;;8.95;100.00;99661.31;4975189;28;20308;-73
2022/09/28 00:09:16;;;;;;;4.33;3.70;;;;;;;8.95;100.00;99668.97;4982071;28;20184;-74
2022/09/28 00:11:42;;;;;;;4.73;4.10;;;;;;;8.93;100.00;99668.97;4980204;28;20203;-73
2022/09/28 00:14:09;;;;;;;6.57;3.73;;;;;;;8.95;100.00;99668.97;4996398;28;20720;-74
2022/09/28 00:16:39;;;;;;;4.97;3.77;;;;;;;8.94;100.00;99660.44;4987612;28;20198;-74
2022/09/28 00:19:05;;;;;;;4.33;3.57;;;;;;;8.96;100.00;99660.47;4985324;28;20271;-74
2022/09/28 00:21:33;;;;;;;8.63;4.07;;;;;;;8.96;100.00;99658.78;4983204;28;20223;-73
2022/09/28 00:24:15;;;;;;;5.13;3.37;;;;;;;8.99;100.00;99658.78;4998899;28;20222;-73
2022/09/28 00:26:48;;;;;;;5.70;3.87;;;;;;;9.02;100.00;99653.72;4983001;28;20279;-73
2022/09/28 00:29:30;;;;;;;3.93;3.53;;;;;;;9.03;100.00;99659.69;4981100;28;20192;-73
2022/09/28 00:32:02;;;;;;;5.93;3.67;;;;;;;9.06;100.00;99657.13;4980116;28;20226;-73
2022/09/28 00:34:34;;;;;;;4.23;3.17;;;;;;;9.06;100.00;99649.47;5000282;28;20188;-73
2022/09/28 00:37:01;;;;;;;5.63;3.30;;;;;;;9.03;100.00;99647.75;4980991;28;20191;-73
2022/09/28 00:39:26;;;;;;;3.87;3.37;;;;;;;9.04;100.00;99648.63;4996103;28;20534;-73
2022/09/28 00:41:53;;;;;;;5.07;3.77;;;;;;;9.04;100.00;99646.06;4998918;28;20196;-73
2022/09/28 00:44:24;;;;;;;3.77;3.27;;;;;;;9.06;100.00;99644.34;4981234;28;20210;-73
2022/09/28 00:47:14;;;;;;;3.77;3.47;;;;;;;9.10;100.00;99646.97;4976821;28;20240;-73
2022/09/28 00:49:53;;;;;;;4.00;3.60;;;;;;;9.10;100.00;99643.53;5000819;28;20222;-73
2022/09/28 00:52:47;;;;;;;5.47;4.00;;;;;;;9.09;100.00;99639.28;4987759;28;20555;-73
2022/09/28 00:55:21;;;;;;;5.57;4.10;;;;;;;9.12;100.00;99634.19;4987804;28;20204;-73
2022/09/28 00:57:51;;;;;;;7.33;4.57;;;;;;;9.07;100.00;99630.78;4980855;28;20208;-73
2022/09/28 01:00:17;;;;;;;5.43;4.33;;;;;;;9.07;100.00;99631.59;5004415;28;20215;-73
2022/09/28 01:02:44;;;;;;;5.43;4.60;;;;;;;9.01;100.00;99623.91;4994310;28;20191;-73
2022/09/28 01:05:11;;;;;;;7.00;5.50;;;;;;;9.00;100.00;99632.44;5009359;28;20227;-73
2022/09/28 01:07:37;;;;;;;8.30;5.53;;;;;;;8.97;100.00;99634.97;4984648;28;20238;-73
2022/09/28 01:10:04;;;;;;;6.00;5.17;;;;;;;8.95;100.00;99628.13;4987723;28;20207;-73
2022/09/28 01:12:30;;;;;;;5.83;5.20;;;;;;;8.91;100.00;99627.28;5003828;28;20195;-73
2022/09/28 01:14:57;;;;;;;7.30;5.67;;;;;;;8.89;100.00;99628.09;4977815;28;20199;-73
2022/09/28 01:17:57;;;;;;;5.87;5.20;;;;;;;8.87;100.00;99620.44;4986547;28;20194;-73
2022/09/28 01:20:34;;;;;;;8.57;5.50;;;;;;;8.88;100.00;99626.38;5000886;23;20582;-76
2022/09/28 01:23:11;;;;;;;6.60;5.13;;;;;;;8.89;100.00;99628.94;4978064;28;20205;-77
2022/09/28 01:25:53;;;;;;;6.33;5.50;;;;;;;8.83;100.00;99628.03;4987279;28;20212;-77
2022/09/28 01:28:30;;;;;;;9.17;6.53;;;;;;;8.81;100.00;99625.47;4967449;28;20269;-77
2022/09/28 01:31:14;;;;;;;7.70;5.83;;;;;;;8.80;100.00;99623.78;4975521;28;20209;-76
2022/09/28 01:33:49;;;;;;;7.80;6.10;;;;;;;8.80;100.00;99625.50;4979477;28;20188;-76
2022/09/28 01:36:20;;;;;;;8.50;5.73;;;;;;;8.78;100.00;99630.59;4991827;28;20196;-77
2022/09/28 01:38:49;;;;;;;8.83;6.43;;;;;;;8.73;100.00;99627.16;5002843;23;20238;-75
2022/09/28 01:41:16;;;;;;;8.40;6.17;;;;;;;8.69;100.00;99620.31;4996652;28;20680;-76
2022/09/28 01:43:56;;;;;;;8.60;6.33;;;;;;;8.65;100.00;99618.56;5003163;28;20214;-75
2022/09/28 01:46:33;;;;;;;9.97;6.50;;;;;;;8.60;100.00;99612.59;5003029;28;20218;-77
2022/09/28 01:49:07;;;;;;;8.97;6.97;;;;;;;8.56;100.00;99617.63;5003272;28;20187;-76
2022/09/28 01:51:40;;;;;;;8.23;6.57;;;;;;;8.52;100.00;99615.94;5008198;28;20186;-77
2022/09/28 01:54:12;;;;;;;8.23;7.40;;;;;;;8.45;100.00;99609.06;5016681;28;20266;-76
2022/09/28 01:57:05;;;;;;;10.03;8.43;;;;;;;8.41;100.00;99613.31;5008891;28;20214;-77
2022/09/28 01:59:33;;;;;;;9.63;8.63;;;;;;;8.33;100.00;99614.06;5010436;28;20203;-76
2022/09/28 02:02:32;;;;;;;16.10;8.47;;;;;;;8.28;100.00;99614.03;4997014;28;20195;-76
2022/09/28 02:05:10;;;;;;;9.83;8.37;;;;;;;8.22;100.00;99611.44;4994269;28;20317;-76
2022/09/28 02:07:55;;;;;;;11.57;8.47;;;;;;;8.19;100.00;99607.94;5006951;28;20193;-77
2022/09/28 02:10:26;;;;;;;9.63;7.93;;;;;;;8.14;100.00;99605.38;5010579;28;20234;-77
2022/09/28 02:13:04;;;;;;;11.27;8.20;;;;;;;8.07;100.00;99608.69;4999388;28;20207;-77
2022/09/28 02:15:44;;;;;;;14.30;8.20;;;;;;;8.05;100.00;99602.75;5006786;28;20186;-76
2022/09/28 02:18:10;;;;;;;10.23;7.67;;;;;;;7.98;100.00;99612.88;5003813;28;20211;-76
2022/09/28 02:20:39;;;;;;;9.60;7.77;;;;;;;7.95;100.00;99600.09;5003669;28;20207;-76
2022/09/28 02:23:07;;;;;;;9.33;7.30;;;;;;;7.88;100.00;99599.16;5021713;28;20192;-75
2022/09/28 02:25:39;;;;;;;8.87;7.20;;;;;;;7.87;100.00;99606.84;5009975;28;20823;-76
2022/09/28 02:28:09;;;;;;;8.80;7.63;;;;;;;7.77;100.00;99595.69;4998644;28;20214;-76
2022/09/28 02:30:37;;;;;;;11.57;8.10;;;;;;;7.76;100.00;99599.06;5011440;28;20246;-76
2022/09/28 02:33:11;;;;;;;10.83;8.63;;;;;;;7.79;100.00;99604.19;5010332;28;20195;-76
2022/09/28 02:35:38;;;;;;;10.37;8.63;;;;;;;7.74;100.00;99598.19;5010921;28;20705;-76
2022/09/28 02:38:04;;;;;;;11.73;8.17;;;;;;;7.59;100.00;99603.13;5008810;28;20184;-76
2022/09/28 02:40:32;;;;;;;11.50;8.67;;;;;;;7.59;100.00;99602.25;5007135;28;20713;-76
2022/09/28 02:43:19;;;;;;;11.73;8.87;;;;;;;7.55;100.00;99601.38;5022895;28;20289;-76
2022/09/28 02:46:05;;;;;;;11.53;8.50;;;;;;;7.48;99.74;99608.94;4998150;28;20326;-76
2022/09/28 02:48:54;;;;;;;11.00;8.60;;;;;;;7.51;100.00;99594.53;5009046;28;20191;-76
2022/09/28 02:51:33;;;;;;;12.30;9.00;;;;;;;7.58;99.83;99601.41;5014815;28;20221;-76
2022/09/28 02:54:33;;;;;;;12.17;9.23;;;;;;;7.52;99.85;99593.72;5023087;28;20179;-76
2022/09/28 02:57:02;;;;;;;13.27;9.60;;;;;;;7.60;99.31;99599.72;5010612;28;20198;-76
2022/09/28 02:59:44;;;;;;;14.87;10.13;;;;;;;7.63;100.00;99601.47;5011382;28;20211;-76
2022/09/28 03:02:35;;;;;;;12.17;9.70;;;;;;;7.63;100.00;99598.91;5006392;28;20191;-76
2022/09/28 03:05:43;;;;;;;18.37;12.93;;;;;;;7.63;100.00;99594.69;5026249;28;20806;-76
2022/09/28 03:08:20;;;;;;;32.47;15.00;;;;;;;7.57;100.00;99599.72;4989961;28;20220;-76
2022/09/28 03:10:57;;;;;;;80.93;17.57;;;;;;;7.47;100.00;99594.50;5007530;28;20207;-77
2022/09/28 03:13:25;;;;;;;118.00;20.00;;;;;;;7.47;100.00;99592.78;5009720;28;20270;-76
2022/09/28 03:15:50;;;;;;;49.47;18.17;;;;;;;7.45;100.00;99594.47;5008418;28;20179;-76
2022/09/28 03:18:16;;;;;;;102.87;21.23;;;;;;;7.37;100.00;99587.59;5013146;28;20719;-76
2022/09/28 03:20:42;;;;;;;77.40;19.17;;;;;;;7.33;100.00;99594.31;5009720;28;20282;-76
2022/09/28 03:23:07;;;;;;;96.37;21.27;;;;;;;7.27;100.00;99595.97;5007288;28;20279;-76
2022/09/28 03:25:33;;;;;;;83.07;21.03;;;;;;;7.29;100.00;99590.06;5005488;28;20195;-76
2022/09/28 03:27:58;;;;;;;37.70;19.00;;;;;;;7.34;100.00;99596.06;5007393;28;20195;-76
2022/09/28 03:30:24;;;;;;;80.63;20.57;;;;;;;7.26;100.00;99590.00;5003091;28;20302;-76
2022/09/28 03:32:58;;;;;;;63.83;18.40;;;;;;;7.26;100.00;99584.91;5002461;28;20726;-76
2022/09/28 03:35:24;;;;;;;48.90;18.73;;;;;;;7.30;100.00;99586.66;5000595;28;20624;-76
2022/09/28 03:37:54;;;;;;;70.73;20.47;;;;;;;7.26;100.00;99584.06;5008583;28;20206;-76
2022/09/28 03:40:19;;;;;;;52.33;19.10;;;;;;;7.21;100.00;99586.56;5018080;28;20234;-76
2022/09/28 03:42:45;;;;;;;76.00;20.63;;;;;;;7.16;100.00;99592.41;5006535;28;20633;-76
2022/09/28 03:45:10;;;;;;;66.77;20.33;;;;;;;7.19;100.00;99587.38;5000965;28;20257;-76
2022/09/28 03:47:36;;;;;;;49.00;21.90;;;;;;;7.20;100.00;99587.41;5037301;28;20269;-76
2022/09/28 03:50:02;;;;;;;74.90;22.00;;;;;;;7.17;100.00;99587.34;5004903;28;20241;-76
2022/09/28 03:52:27;;;;;;;81.80;22.57;;;;;;;7.11;100.00;99587.28;5009400;28;20199;-76
2022/09/28 03:54:53;;;;;;;52.37;21.63;;;;;;;7.21;100.00;99591.66;5007540;28;20237;-76
2022/09/28 03:57:18;;;;;;;57.80;21.67;;;;;;;7.25;100.00;99587.44;5002839;28;20192;-77
2022/09/28 03:59:44;;;;;;;92.10;23.03;;;;;;;7.18;100.00;99589.06;5001629;28;20207;-76
2022/09/28 04:02:09;;;;;;;61.20;20.70;;;;;;;7.20;100.00;99589.06;4996765;28;20195;-76
2022/09/28 04:04:34;;;;;;;78.80;23.10;;;;;;;7.18;100.00;99591.59;5004937;28;20310;-76
2022/09/28 04:07:00;;;;;;;89.83;23.90;;;;;;;7.07;100.00;99589.75;5007405;28;20191;-76
2022/09/28 04:09:25;;;;;;;74.77;26.60;;;;;;;7.07;100.00;99585.53;4993016;28;20211;-76
2022/09/28 04:11:53;;;;;;;100.80;25.80;;;;;;;7.09;100.00;99583.84;4999475;28;20258;-75
2022/09/28 04:14:19;;;;;;;113.90;25.67;;;;;;;7.05;100.00;99584.63;5000531;28;20183;-75
2022/09/28 04:16:46;;;;;;;99.87;25.30;;;;;;;7.04;100.00;99588.03;5005890;28;20239;-76
2022/09/28 04:19:14;;;;;;;99.47;27.37;;;;;;;7.09;100.00;99588.94;4999398;28;20180;-76
2022/09/28 04:21:58;;;;;;;106.93;24.70;;;;;;;7.06;100.00;99588.06;5005618;28;20226;-76
2022/09/28 04:24:23;;;;;;;75.27;26.20;;;;;;;7.09;100.00;99583.84;4998709;28;20203;-76
2022/09/28 04:26:50;;;;;;;70.60;26.67;;;;;;;7.13;100.00;99585.59;5005518;28;20559;-76
2022/09/28 04:29:16;;;;;;;66.10;25.53;;;;;;;7.14;100.00;99589.00;4999424;28;20779;-76
2022/09/28 04:31:48;;;;;;;108.77;28.13;;;;;;;7.12;100.00;99585.56;5009038;28;20634;-76
2022/09/28 04:34:19;;;;;;;54.57;25.50;;;;;;;7.20;100.00;99584.84;5014565;28;20187;-76
2022/09/28 04:36:46;;;;;;;60.13;25.70;;;;;;;7.24;100.00;99585.75;4992614;28;20199;-76
2022/09/28 04:39:13;;;;;;;66.00;27.27;;;;;;;7.23;100.00;99584.03;5004561;28;20223;-76
2022/09/28 04:41:40;;;;;;;98.47;29.07;;;;;;;7.22;100.00;99588.25;4998546;28;20245;-76
2022/09/28 04:44:07;;;;;;;61.30;27.23;;;;;;;7.27;100.00;99584.06;5005356;28;20196;-77
2022/09/28 04:46:33;;;;;;;53.47;25.43;;;;;;;7.27;100.00;99589.16;4989942;28;20658;-77
2022/09/28 04:49:28;;;;;;;51.37;25.30;;;;;;;7.29;100.00;99589.19;5006172;28;20223;-77
2022/09/28 04:51:56;;;;;;;49.90;25.13;;;;;;;7.33;100.00;99585.84;5006396;28;20215;-77
2022/09/28 04:54:21;;;;;;;51.20;24.30;;;;;;;7.36;100.00;99580.78;5005488;28;20211;-77
2022/09/28 04:56:47;;;;;;;54.40;26.13;;;;;;;7.33;100.00;99586.69;5007650;28;20183;-76
2022/09/28 04:59:13;;;;;;;51.90;26.20;;;;;;;7.32;100.00;99587.53;5008602;28;20229;-76
2022/09/28 05:01:39;;;;;;;53.70;26.77;;;;;;;7.35;100.00;99587.56;5007525;28;20689;-75
2022/09/28 05:04:40;;;;;;;54.20;26.80;;;;;;;7.32;100.00;99589.25;5004177;28;20215;-74
2022/09/28 05:07:30;;;;;;;52.20;26.60;;;;;;;7.34;100.00;99587.56;4982702;28;20194;-74
2022/09/28 05:09:56;;;;;;;52.03;26.97;;;;;;;7.35;100.00;99589.25;5006792;28;20207;-74
2022/09/28 05:12:21;;;;;;;55.27;27.10;;;;;;;7.37;100.00;99585.06;5006039;28;20674;-74
2022/09/28 05:14:47;;;;;;;50.60;25.70;;;;;;;7.37;100.00;99590.97;5009979;28;20676;-74
2022/09/28 05:17:13;;;;;;;51.40;25.67;;;;;;;7.38;100.00;99589.31;5010172;28;20901;-74
2022/09/28 05:19:47;;;;;;;46.87;24.23;;;;;;;7.42;100.00;99594.44;5003801;28;20218;-75
2022/09/28 05:22:13;;;;;;;48.83;25.50;;;;;;;7.49;100.00;99593.69;5006771;28;20183;-74
2022/09/28 05:24:43;;;;;;;45.57;24.10;;;;;;;7.51;100.00;99589.44;5003810;28;20206;-74
2022/09/28 05:27:09;;;;;;;44.17;24.07;;;;;;;7.51;100.00;99591.16;5006576;28;20184;-74
2022/09/28 05:29:34;;;;;;;51.17;25.00;;;;;;;7.52;100.00;99582.66;5005007;28;20603;-76
2022/09/28 05:32:26;;;;;;;41.70;23.17;;;;;;;7.56;100.00;99585.25;4987949;28;20203;-76
2022/09/28 05:35:00;;;;;;;44.57;23.97;;;;;;;7.55;100.00;99586.09;5008177;28;20191;-76
2022/09/28 05:37:30;;;;;;;45.97;25.37;;;;;;;7.57;100.00;99579.34;5001796;28;20184;-76
2022/09/28 05:39:56;;;;;;;47.30;24.93;;;;;;;7.58;100.00;99585.28;5001730;28;20225;-75
2022/09/28 05:42:21;;;;;;;39.10;23.50;;;;;;;7.64;100.00;99577.72;5006040;28;20180;-75
2022/09/28 05:44:47;;;;;;;42.27;24.57;;;;;;;7.66;100.00;99579.44;5003948;28;20211;-76
2022/09/28 05:47:12;;;;;;;42.67;24.17;;;;;;;7.65;100.00;99574.31;5025253;28;20190;-76
2022/09/28 05:49:38;;;;;;;43.57;24.10;;;;;;;7.69;100.00;99576.06;5009868;28;20203;-76
2022/09/28 05:52:03;;;;;;;44.23;24.93;;;;;;;7.74;100.00;99575.25;5007588;28;20190;-76
2022/09/28 05:54:30;;;;;;;46.53;25.73;;;;;;;7.69;100.00;99576.91;5018698;28;20187;-75
2022/09/28 05:56:55;;;;;;;43.20;25.40;;;;;;;7.65;100.00;99575.16;5003075;28;20709;-76
2022/09/28 05:59:21;;;;;;;46.30;25.40;;;;;;;7.69;100.00;99576.06;5010851;28;20191;-76
2022/09/28 06:01:46;;;;;;;44.57;26.30;;;;;;;7.73;100.00;99573.56;5004313;28;20235;-76
2022/09/28 06:04:14;;;;;;;49.83;26.17;;;;;;;7.78;100.00;99574.44;5010736;28;20215;-75
2022/09/28 06:06:41;;;;;;;42.40;24.40;;;;;;;7.80;100.00;99579.56;5003915;28;20649;-75
2022/09/28 06:09:07;;;;;;;48.40;26.00;;;;;;;7.75;100.00;99577.00;5011180;28;20448;-75
2022/09/28 06:11:38;;;;;;;47.03;25.83;;;;;;;7.75;100.00;99576.13;5008235;28;20191;-75
2022/09/28 06:14:12;;;;;;;44.47;23.97;;;;;;;7.79;100.00;99581.25;5012756;28;20197;-76
2022/09/28 06:16:39;;;;;;;43.93;25.10;;;;;;;7.79;100.00;99580.41;5010809;28;20187;-76
2022/09/28 06:19:06;;;;;;;46.13;25.17;;;;;;;7.78;100.00;99577.00;5024003;28;20722;-75
2022/09/28 06:21:43;;;;;;;43.60;24.53;;;;;;;7.75;100.00;99582.09;5004371;28;20207;-76
2022/09/28 06:24:08;;;;;;;39.03;24.67;;;;;;;7.76;100.00;99580.38;5006038;28;20556;-75
2022/09/28 06:26:35;;;;;;;42.07;25.27;;;;;;;7.77;100.00;99582.06;5009620;28;20244;-76
2022/09/28 06:29:00;;;;;;;43.07;24.03;;;;;;;7.81;100.00;99586.38;5008143;28;20183;-75
2022/09/28 06:31:28;;;;;;;44.80;24.87;;;;;;;7.85;100.00;99590.66;5007851;28;20293;-75
2022/09/28 06:33:54;;;;;;;43.70;24.77;;;;;;;7.89;100.00;99594.94;4994653;28;20687;-75
2022/09/28 06:36:21;;;;;;;45.33;24.90;;;;;;;7.92;100.00;99600.91;5000951;28;20939;-75
2022/09/28 06:38:48;;;;;;;40.00;24.17;;;;;;;7.97;100.00;99600.97;5008502;28;20754;-75
2022/09/28 06:41:14;;;;;;;39.07;24.07;;;;;;;7.99;100.00;99596.72;5005841;28;20246;-75
2022/09/28 06:43:40;;;;;;;39.80;23.03;;;;;;;8.02;100.00;99602.72;5007786;28;20233;-75
2022/09/28 06:46:12;;;;;;;41.30;24.37;;;;;;;8.06;100.00;99591.69;5010253;28;20199;-75
2022/09/28 06:48:57;;;;;;;44.87;25.77;;;;;;;8.08;100.00;99604.47;5011516;28;20286;-74
2022/09/28 06:51:41;;;;;;;42.70;26.20;;;;;;;8.11;100.00;99605.34;5009461;28;20238;-75
2022/09/28 06:54:32;;;;;;;38.27;24.37;;;;;;;8.21;100.00;99612.25;5014884;28;20187;-76
2022/09/28 06:57:07;;;;;;;43.37;26.43;;;;;;;8.26;100.00;99615.72;5009978;28;20187;-76
2022/09/28 06:59:33;;;;;;;43.50;27.23;;;;;;;8.34;100.00;99618.34;5010235;28;20581;-74
2022/09/28 07:01:59;;;;;;;44.40;24.87;;;;;;;8.25;100.00;99616.53;5010493;28;20852;-76
2022/09/28 07:04:43;;;;;;;42.10;24.50;;;;;;;8.22;100.00;99616.53;5004819;28;20630;-73
2022/09/28 07:07:28;;;;;;;40.20;24.43;;;;;;;8.23;100.00;99617.38;5002817;28;20278;-76
2022/09/28 07:10:00;;;;;;;37.20;23.30;;;;;;;8.28;100.00;99619.13;5005257;28;20712;-74
2022/09/28 07:12:34;;;;;;;38.33;23.07;;;;;;;8.33;100.00;99616.59;5003261;28;20981;-76
2022/09/28 07:15:02;;;;;;;40.87;24.50;;;;;;;8.34;100.00;99621.72;5013549;28;20278;-75
2022/09/28 07:17:28;;;;;;;39.80;23.80;;;;;;;8.41;100.00;99623.50;4999970;28;20187;-76
2022/09/28 07:19:57;;;;;;;37.30;23.17;;;;;;;8.45;100.00;99620.13;4988735;28;20206;-76
2022/09/28 07:22:22;;;;;;;44.40;25.23;;;;;;;8.53;100.00;99626.13;5008743;28;20219;-77
2022/09/28 07:24:49;;;;;;;35.83;23.67;;;;;;;8.62;100.00;99631.31;5008718;28;20211;-77
2022/09/28 07:27:38;;;;;;;41.80;25.00;;;;;;;8.51;100.00;99632.94;5003431;28;20242;-77
2022/09/28 07:30:32;;;;;;;40.10;25.13;;;;;;;8.58;100.00;99637.25;4994872;28;20220;-76
2022/09/28 07:33:20;;;;;;;37.30;24.13;;;;;;;8.52;100.00;99646.56;5006889;28;20207;-75
2022/09/28 07:35:54;;;;;;;39.80;25.03;;;;;;;8.59;100.00;99640.63;4997916;28;20198;-76
2022/09/28 07:38:22;;;;;;;36.53;23.53;;;;;;;8.39;100.00;99637.91;5001708;28;20202;-77
2022/09/28 07:43:32;;;;;;;35.83;22.67;;;;;;;8.62;100.00;99641.50;5004967;28;20297;-75
2022/09/28 07:45:57;;;;;;;35.40;23.53;;;;;;;8.69;99.95;99645.81;5001510;28;20683;-75
2022/09/28 07:48:23;;;;;;;36.53;23.67;;;;;;;8.71;100.00;99646.69;5011875;28;20696;-76
2022/09/28 07:51:12;;;;;;;35.53;22.33;;;;;;;8.45;99.70;99653.28;5004455;28;20250;-75
2022/09/28 07:53:46;;;;;;;36.13;22.67;;;;;;;8.63;100.00;99658.56;4997685;28;20183;-75
2022/09/28 07:56:19;;;;;;;33.80;22.70;;;;;;;8.70;100.00;99647.53;5007205;28;20256;-75
2022/09/28 07:58:58;;;;;;;39.30;24.17;;;;;;;8.62;99.68;99658.53;5006479;28;20202;-75
2022/09/28 08:01:48;;;;;;;39.33;23.93;;;;;;;8.72;99.29;99652.66;5009150;28;20253;-75
2022/09/28 08:04:14;;;;;;;36.87;23.73;;;;;;;8.81;99.33;99653.56;5009573;28;20218;-75
2022/09/28 08:06:43;;;;;;;36.03;23.23;;;;;;;8.84;99.43;99647.66;5004951;28;20187;-75
2022/09/28 08:09:10;;;;;;;32.53;22.50;;;;;;;8.97;99.22;99652.81;4999859;28;20282;-76
2022/09/28 08:11:54;;;;;;;35.53;22.53;;;;;;;8.95;98.36;99654.53;5008248;28;20202;-76
2022/09/28 08:14:43;;;;;;;36.23;23.20;;;;;;;9.01;98.65;99657.13;4983082;28;20559;-76
2022/09/28 08:17:27;;;;;;;33.73;22.60;;;;;;;9.09;98.25;99650.38;5007812;28;20193;-75
2022/09/28 08:22:40;;;;;;;33.63;22.93;;;;;;;9.15;97.85;99655.50;5008465;28;20214;-76
2022/09/28 08:25:06;;;;;;;34.53;22.50;;;;;;;9.17;97.83;99663.16;4999161;28;20898;-77
2022/09/28 08:27:32;;;;;;;35.00;23.40;;;;;;;9.05;97.24;99660.53;5002095;28;20191;-76
2022/09/28 08:29:57;;;;;;;36.00;23.13;;;;;;;9.07;97.54;99661.41;5008785;28;20218;-76
2022/09/28 08:32:41;;;;;;;35.63;23.07;;;;;;;9.13;96.76;99662.28;5005175;28;20667;-76
2022/09/28 08:35:25;;;;;;;34.07;22.30;;;;;;;9.03;96.28;99669.88;4997128;28;20198;-76
2022/09/28 08:38:09;;;;;;;34.97;22.63;;;;;;;9.09;95.78;99673.34;5005884;28;20191;-75
2022/09/28 08:41:06;;;;;;;35.20;23.40;;;;;;;9.15;96.31;99675.06;5003368;28;20226;-76
2022/09/28 08:43:54;;;;;;;34.90;22.80;;;;;;;9.08;96.09;99670.78;5020876;28;20220;-76
2022/09/28 08:46:34;;;;;;;34.40;23.23;;;;;;;9.04;97.09;99672.44;5003429;28;20188;-76
2022/09/28 08:49:42;;;;;;;37.30;24.60;;;;;;;9.10;96.64;99672.50;5004889;28;20213;-76
2022/09/28 08:52:23;;;;;;;35.87;23.60;;;;;;;9.12;97.59;99673.34;5012270;28;20195;-75
2022/09/28 08:55:31;;;;;;;37.03;23.93;;;;;;;9.12;97.10;99673.34;4971555;28;20199;-76
2022/09/28 08:58:03;;;;;;;39.57;24.47;;;;;;;9.15;97.12;99677.59;4955781;28;20828;-76
2022/09/28 09:00:46;;;;;;;35.17;23.93;;;;;;;9.22;97.21;99680.19;4975719;28;20242;-75
2022/09/28 09:03:15;;;;;;;39.57;24.17;;;;;;;9.31;97.16;99681.97;5004129;28;20557;-76
2022/09/28 09:05:59;;;;;;;35.47;24.67;;;;;;;9.26;96.99;99681.94;4997405;28;20190;-76
2022/09/28 09:09:04;;;;;;;38.70;25.07;;;;;;;9.22;96.29;99685.31;5022104;28;20206;-77
2022/09/28 09:11:49;;;;;;;35.10;23.73;;;;;;;9.49;95.74;99688.00;5003702;28;20298;-77
2022/09/28 09:14:26;;;;;;;34.50;23.43;;;;;;;9.51;94.99;99694.00;5018400;28;20710;-77
2022/09/28 09:17:27;;;;;;;34.23;24.03;;;;;;;9.30;94.93;99687.94;5006450;28;20206;-77
2022/09/28 09:20:42;;;;;;;36.17;23.53;;;;;;;9.42;94.73;99686.28;5010146;28;20200;-76
2022/09/28 09:23:19;;;;;;;38.30;25.10;;;;;;;9.53;95.34;99684.63;5010728;28;20199;-77
2022/09/28 09:25:49;;;;;;;36.57;25.37;;;;;;;9.52;94.80;99690.59;5020773;28;20257;-77
2022/09/28 09:28:50;;;;;;;34.23;24.63;;;;;;;9.64;94.41;99684.69;5010798;28;20203;-73
2022/09/28 09:31:29;;;;;;;35.33;24.37;;;;;;;9.78;94.91;99690.72;5007231;28;20695;-76
2022/09/28 09:34:40;;;;;;;37.00;24.47;;;;;;;9.72;94.58;99686.41;5010289;28;20283;-75
2022/09/28 09:38:27;;;;;;;36.77;24.57;;;;;;;9.69;94.29;99688.97;5008494;28;20732;-74
2022/09/28 09:41:31;;;;;;;36.10;24.30;;;;;;;9.75;93.73;99694.09;5011352;28;20222;-75
2022/09/28 09:44:50;;;;;;;34.30;23.43;;;;;;;9.75;93.15;99689.00;5011185;28;20251;-74
2022/09/28 09:48:02;;;;;;;33.03;23.50;;;;;;;9.85;93.18;99692.44;5012677;28;20732;-74
2022/09/28 09:50:38;;;;;;;34.87;24.63;;;;;;;9.90;93.32;99691.59;5016044;28;20205;-74
2022/09/28 09:53:08;;;;;;;34.90;24.40;;;;;;;10.05;93.39;99695.94;5010242;28;20593;-74
2022/09/28 09:55:45;;;;;;;32.83;24.17;;;;;;;10.01;93.17;99697.63;5013151;28;20191;-75
2022/09/28 09:58:47;;;;;;;36.73;24.40;;;;;;;10.06;91.70;99693.41;5008881;28;20200;-75
2022/09/28 10:01:22;;;;;;;32.87;23.97;;;;;;;10.13;91.13;99697.66;5008936;28;20212;-75
2022/09/28 10:04:29;;;;;;;35.80;24.33;;;;;;;10.17;91.67;99699.38;5005822;28;20234;-75
2022/09/28 10:07:03;;;;;;;33.00;24.10;;;;;;;10.18;91.17;99697.69;5017189;28;20207;-71
2022/09/28 10:09:36;;;;;;;36.83;24.00;;;;;;;10.55;91.68;99694.34;5009553;28;20780;-72
2022/09/28 10:12:22;;;;;;;34.43;23.97;;;;;;;10.70;90.98;99696.91;5017751;28;20553;-72
2022/09/28 10:14:48;;;;;;;32.73;23.60;;;;;;;10.95;89.91;99694.34;5009950;28;20272;-72
2022/09/28 10:17:18;;;;;;;35.97;25.03;;;;;;;11.22;89.17;99701.13;4994881;28;20188;-72
2022/09/28 10:20:03;;;;;;;31.40;23.70;;;;;;;11.36;87.79;99697.69;4993341;28;20226;-73
2022/09/28 10:22:45;;;;;;;32.77;22.33;;;;;;;11.39;87.35;99697.66;5003390;28;20245;-72
2022/09/28 10:25:16;;;;;;;29.27;22.07;;;;;;;11.26;85.41;99706.25;4998754;28;20253;-72
2022/09/28 10:27:44;;;;;;;32.23;22.63;;;;;;;11.39;86.61;99705.34;5002548;28;20241;-73
2022/09/28 10:30:15;;;;;;;29.93;22.40;;;;;;;11.92;84.92;99695.81;5006677;28;20556;-72
2022/09/28 10:32:46;;;;;;;29.07;22.10;;;;;;;12.12;83.41;99688.84;5010248;28;20215;-75
2022/09/28 10:35:19;;;;;;;29.07;21.10;;;;;;;12.09;82.85;99698.28;5009714;28;20182;-75
2022/09/28 10:38:06;;;;;;;29.07;21.87;;;;;;;12.21;82.12;99690.53;5026635;28;20297;-74
2022/09/28 10:40:49;;;;;;;30.43;23.17;;;;;;;11.83;82.06;99695.84;5008551;28;20207;-75
2022/09/28 10:43:35;;;;;;;27.77;21.83;;;;;;;12.10;82.21;99694.84;5006674;28;20186;-75
2022/09/28 10:46:09;;;;;;;28.17;21.53;;;;;;;12.75;80.63;99697.81;5011609;28;20340;-74
2022/09/28 10:48:47;;;;;;;31.27;22.03;;;;;;;12.44;81.41;99702.34;5011845;28;20183;-75
2022/09/28 10:51:13;;;;;;;30.40;20.93;;;;;;;12.26;81.85;99699.88;5008250;28;20302;-75
2022/09/28 10:53:40;;;;;;;26.53;20.63;;;;;;;12.32;81.48;99699.00;5006943;28;20178;-74
2022/09/28 10:56:19;;;;;;;25.13;19.93;;;;;;;13.55;78.69;99685.09;4993654;28;20790;-75
2022/09/28 10:58:46;;;;;;;23.93;17.03;;;;;;;16.74;64.41;99682.88;5002502;28;20656;-75
2022/09/28 11:01:29;;;;;;;19.30;16.00;;;;;;;18.50;57.40;99671.91;5000654;28;20751;-75
2022/09/28 11:04:01;;;;;;;14.70;13.20;;;;;;;20.63;48.44;99669.38;5010919;28;20210;-75
2022/09/28 11:06:30;;;;;;;16.58;13.98;;;;;;;20.52;47.52;99665.50;5006120;28;20195;-75
2022/09/28 11:09:00;;;;;;;16.97;14.47;;;;;;;16.57;58.59;99685.84;5012027;28;20305;-75
2022/09/28 11:11:28;;;;;;;18.67;15.73;;;;;;;15.62;64.19;99686.19;5008067;28;20210;-75
2022/09/28 11:14:02;;;;;;;19.53;16.47;;;;;;;14.66;67.80;99687.88;5020088;28;20246;-75
2022/09/28 11:16:33;;;;;;;24.60;18.33;;;;;;;14.40;70.33;99687.41;5004041;28;20225;-75
2022/09/28 11:19:27;;;;;;;22.03;17.13;;;;;;;14.38;70.69;99696.91;5007225;28;20187;-75
2022/09/28 11:21:53;;;;;;;23.80;18.87;;;;;;;14.19;71.42;99693.72;5028990;28;20237;-75
2022/09/28 11:24:24;;;;;;;25.17;18.97;;;;;;;14.17;71.65;99694.59;5005054;28;20619;-74
2022/09/28 11:26:58;;;;;;;24.63;18.17;;;;;;;15.09;69.35;99691.44;5006199;28;20191;-75
2022/09/28 11:29:49;;;;;;;24.23;17.80;;;;;;;19.62;54.10;99661.16;5004853;28;20692;-75
2022/09/28 11:32:42;;;;;;;17.17;15.25;;;;;;;21.54;46.13;99654.19;5002289;28;20249;-76
2022/09/28 11:35:34;;;;;;;16.13;14.38;;;;;;;21.43;45.36;99658.19;5009340;28;20207;-75
2022/09/28 11:38:11;;;;;;;15.65;14.02;;;;;;;21.18;45.90;99662.75;5008541;28;20192;-75
2022/09/28 11:41:41;;;;;;;19.20;16.27;;;;;;;23.52;41.00;99651.53;5013788;28;20236;-75
2022/09/28 11:44:16;;;;;;;16.50;14.80;;;;;;;24.65;39.57;99647.94;5005475;28;20286;-75
2022/09/28 11:47:03;;;;;;;16.50;14.38;;;;;;;25.43;36.39;99652.03;4990465;28;20190;-76
2022/09/28 11:49:36;;;;;;;17.63;15.85;;;;;;;27.20;34.86;99643.19;5008186;28;20218;-76
2022/09/28 11:52:09;;;;;;;16.55;14.95;;;;;;;28.27;33.36;99639.06;4984917;28;20671;-77
2022/09/28 11:55:11;;;;;;;17.23;15.27;;;;;;;26.95;35.46;99645.75;5009530;28;20186;-75
2022/09/28 11:57:40;;;;;;;16.83;14.95;;;;;;;25.49;37.72;99656.03;5003902;28;20189;-75
2022/09/28 12:00:13;;;;;;;16.38;14.55;;;;;;;25.48;36.59;99652.59;5017114;28;20300;-75
2022/09/28 12:02:56;;;;;;;17.00;14.32;;;;;;;23.99;39.15;99665.56;5005822;28;20652;-75
2022/09/28 12:05:33;;;;;;;17.60;15.48;;;;;;;22.82;41.58;99669.06;5005120;28;20333;-75